sensor_id;sensor_type;location;lat;lon;timestamp;P1;durP1;ratioP1;P2;durP2;ratioP2
30458;SDS011;17254;50.976;7.034;2023-05-02T00:00:00;41.83;;;30.73;;
30458;SDS011;17254;50.976;7.034;2023-05-02T00:00:10;43.03;;;31.37;;
30458;SDS011;17254;50.976;7.034;2023-05-02T00:00:17;42.73;;;31.47;;
30458;SDS011;17254;50.976;7.034;2023-05-02T00:00:23;43.38;;;31.98;;
30458;SDS011;17254;50.976;7.034;2023-05-02T00:00:30;43.85;;;31.85;;
30458;SDS011;17254;50.976;7.034;2023-05-02T00:00:36;44.13;;;31.60;;
30458;SDS011;17254;50.976;7.034;2023-05-02T00:00:42;43.63;;;31.58;;
30458;SDS011;17254;50.976;7.034;2023-05-02T00:00:49;44.08;;;31.84;;
30458;SDS011;17254;50.976;7.034;2023-05-02T00:00:56;41.90;;;31.10;;
30458;SDS011;17254;50.976;7.034;2023-05-02T00:01:03;40.90;;;30.58;;
30458;SDS011;17254;50.976;7.034;2023-05-02T00:01:09;40.37;;;30.10;;
30458;SDS011;17254;50.976;7.034;2023-05-02T00:01:16;40.70;;;30.05;;
30458;SDS011;17254;50.976;7.034;2023-05-02T00:01:22;41.93;;;30.77;;
30458;SDS011;17254;50.976;7.034;2023-05-02T00:01:28;43.92;;;31.73;;
30458;SDS011;17254;50.976;7.034;2023-05-02T00:01:34;44.55;;;32.08;;
30458;SDS011;17254;50.976;7.034;2023-05-02T00:01:40;44.95;;;32.30;;
30458;SDS011;17254;50.976;7.034;2023-05-02T00:01:47;44.72;;;32.24;;
30458;SDS011;17254;50.976;7.034;2023-05-02T00:01:54;44.50;;;32.07;;
30458;SDS011;17254;50.976;7.034;2023-05-02T00:01:59;42.50;;;31.60;;
30458;SDS011;17254;50.976;7.034;2023-05-02T00:02:06;42.50;;;31.65;;
30458;SDS011;17254;50.976;7.034;2023-05-02T00:02:12;43.90;;;32.23;;
30458;SDS011;17254;50.976;7.034;2023-05-02T00:02:19;44.34;;;32.56;;
30458;SDS011;17254;50.976;7.034;2023-05-02T00:02:25;44.43;;;32.83;;
30458;SDS011;17254;50.976;7.034;2023-05-02T00:02:31;45.67;;;33.23;;
30458;SDS011;17254;50.976;7.034;2023-05-02T00:02:38;45.13;;;33.03;;
30458;SDS011;17254;50.976;7.034;2023-05-02T00:02:44;44.25;;;32.63;;
30458;SDS011;17254;50.976;7.034;2023-05-02T00:02:50;43.85;;;32.65;;
30458;SDS011;17254;50.976;7.034;2023-05-02T00:02:56;45.53;;;32.92;;
30458;SDS011;17254;50.976;7.034;2023-05-02T00:03:02;45.03;;;32.92;;
30458;SDS011;17254;50.976;7.034;2023-05-02T00:03:08;44.45;;;33.45;;
30458;SDS011;17254;50.976;7.034;2023-05-02T00:03:14;44.45;;;33.88;;
30458;SDS011;17254;50.976;7.034;2023-05-02T00:03:21;42.84;;;33.06;;
30458;SDS011;17254;50.976;7.034;2023-05-02T00:03:27;41.63;;;32.37;;
30458;SDS011;17254;50.976;7.034;2023-05-02T00:03:34;41.84;;;31.74;;
30458;SDS011;17254;50.976;7.034;2023-05-02T00:03:40;41.03;;;30.58;;
30458;SDS011;17254;50.976;7.034;2023-05-02T00:03:47;40.16;;;29.60;;
30458;SDS011;17254;50.976;7.034;2023-05-02T00:03:53;39.78;;;29.35;;
30458;SDS011;17254;50.976;7.034;2023-05-02T00:03:59;37.67;;;28.73;;
30458;SDS011;17254;50.976;7.034;2023-05-02T00:04:06;35.88;;;28.08;;
30458;SDS011;17254;50.976;7.034;2023-05-02T00:04:12;36.08;;;28.35;;
30458;SDS011;17254;50.976;7.034;2023-05-02T00:04:18;37.05;;;28.67;;
30458;SDS011;17254;50.976;7.034;2023-05-02T00:04:23;37.40;;;28.80;;
30458;SDS011;17254;50.976;7.034;2023-05-02T00:04:30;37.58;;;29.00;;
30458;SDS011;17254;50.976;7.034;2023-05-02T00:04:35;38.30;;;29.67;;
30458;SDS011;17254;50.976;7.034;2023-05-02T00:04:41;38.53;;;29.88;;
30458;SDS011;17254;50.976;7.034;2023-05-02T00:04:47;37.95;;;29.95;;
30458;SDS011;17254;50.976;7.034;2023-05-02T00:04:55;38.34;;;30.16;;
30458;SDS011;17254;50.976;7.034;2023-05-02T00:05:01;40.00;;;31.25;;
30458;SDS011;17254;50.976;7.034;2023-05-02T00:05:07;40.10;;;31.35;;
30458;SDS011;17254;50.976;7.034;2023-05-02T00:05:14;40.66;;;31.44;;
30458;SDS011;17254;50.976;7.034;2023-05-02T00:05:20;41.33;;;31.75;;
30458;SDS011;17254;50.976;7.034;2023-05-02T00:05:26;41.70;;;31.77;;
30458;SDS011;17254;50.976;7.034;2023-05-02T00:05:32;41.38;;;31.02;;
30458;SDS011;17254;50.976;7.034;2023-05-02T00:05:38;42.67;;;31.17;;
30458;SDS011;17254;50.976;7.034;2023-05-02T00:05:44;42.70;;;31.20;;
30458;SDS011;17254;50.976;7.034;2023-05-02T00:05:50;41.40;;;31.03;;
30458;SDS011;17254;50.976;7.034;2023-05-02T00:05:57;40.50;;;30.75;;
30458;SDS011;17254;50.976;7.034;2023-05-02T00:06:03;39.32;;;30.36;;
30458;SDS011;17254;50.976;7.034;2023-05-02T00:06:09;38.85;;;30.30;;
30458;SDS011;17254;50.976;7.034;2023-05-02T00:06:16;39.10;;;30.80;;
30458;SDS011;17254;50.976;7.034;2023-05-02T00:06:22;40.70;;;31.25;;
30458;SDS011;17254;50.976;7.034;2023-05-02T00:06:29;42.60;;;32.22;;
30458;SDS011;17254;50.976;7.034;2023-05-02T00:06:35;44.43;;;32.83;;
30458;SDS011;17254;50.976;7.034;2023-05-02T00:06:41;44.73;;;32.93;;
30458;SDS011;17254;50.976;7.034;2023-05-02T00:06:50;47.47;;;33.20;;
30458;SDS011;17254;50.976;7.034;2023-05-02T00:06:57;47.30;;;33.00;;
30458;SDS011;17254;50.976;7.034;2023-05-02T00:07:03;47.13;;;33.17;;
30458;SDS011;17254;50.976;7.034;2023-05-02T00:07:11;46.64;;;33.46;;
30458;SDS011;17254;50.976;7.034;2023-05-02T00:07:17;45.72;;;33.08;;
30458;SDS011;17254;50.976;7.034;2023-05-02T00:07:23;44.95;;;33.05;;
30458;SDS011;17254;50.976;7.034;2023-05-02T00:07:30;43.37;;;32.60;;
30458;SDS011;17254;50.976;7.034;2023-05-02T00:07:37;43.07;;;32.33;;
30458;SDS011;17254;50.976;7.034;2023-05-02T00:07:43;43.08;;;32.16;;
30458;SDS011;17254;50.976;7.034;2023-05-02T00:07:50;42.77;;;32.40;;
30458;SDS011;17254;50.976;7.034;2023-05-02T00:07:56;42.85;;;31.70;;
30458;SDS011;17254;50.976;7.034;2023-05-02T00:08:02;43.90;;;32.50;;
30458;SDS011;17254;50.976;7.034;2023-05-02T00:08:08;44.67;;;32.70;;
30458;SDS011;17254;50.976;7.034;2023-05-02T00:08:15;44.50;;;32.40;;
30458;SDS011;17254;50.976;7.034;2023-05-02T00:08:21;45.45;;;32.42;;
30458;SDS011;17254;50.976;7.034;2023-05-02T00:08:27;45.27;;;32.57;;
30458;SDS011;17254;50.976;7.034;2023-05-02T00:08:33;44.67;;;32.00;;
30458;SDS011;17254;50.976;7.034;2023-05-02T00:08:39;44.05;;;31.23;;
30458;SDS011;17254;50.976;7.034;2023-05-02T00:08:46;44.15;;;31.35;;
30458;SDS011;17254;50.976;7.034;2023-05-02T00:08:53;42.80;;;31.07;;
30458;SDS011;17254;50.976;7.034;2023-05-02T00:08:59;43.20;;;31.20;;
30458;SDS011;17254;50.976;7.034;2023-05-02T00:09:05;44.10;;;31.92;;
30458;SDS011;17254;50.976;7.034;2023-05-02T00:09:11;44.13;;;32.20;;
30458;SDS011;17254;50.976;7.034;2023-05-02T00:09:18;43.90;;;31.90;;
30458;SDS011;17254;50.976;7.034;2023-05-02T00:09:24;43.70;;;31.83;;
30458;SDS011;17254;50.976;7.034;2023-05-02T00:09:30;42.28;;;31.58;;
30458;SDS011;17254;50.976;7.034;2023-05-02T00:09:36;42.60;;;30.77;;
30458;SDS011;17254;50.976;7.034;2023-05-02T00:09:42;41.87;;;30.67;;
30458;SDS011;17254;50.976;7.034;2023-05-02T00:09:48;41.42;;;30.73;;
30458;SDS011;17254;50.976;7.034;2023-05-02T00:09:54;40.54;;;30.86;;
30458;SDS011;17254;50.976;7.034;2023-05-02T00:10:00;41.80;;;30.93;;
30458;SDS011;17254;50.976;7.034;2023-05-02T00:10:07;41.13;;;31.38;;
30458;SDS011;17254;50.976;7.034;2023-05-02T00:10:14;41.10;;;31.62;;
30458;SDS011;17254;50.976;7.034;2023-05-02T00:10:20;41.33;;;31.63;;
30458;SDS011;17254;50.976;7.034;2023-05-02T00:10:26;44.30;;;32.05;;
30458;SDS011;17254;50.976;7.034;2023-05-02T00:10:32;43.30;;;31.57;;
30458;SDS011;17254;50.976;7.034;2023-05-02T00:10:38;42.42;;;31.27;;
30458;SDS011;17254;50.976;7.034;2023-05-02T00:10:44;41.92;;;30.70;;
30458;SDS011;17254;50.976;7.034;2023-05-02T00:10:51;41.00;;;30.17;;
30458;SDS011;17254;50.976;7.034;2023-05-02T00:10:57;39.53;;;30.02;;
30458;SDS011;17254;50.976;7.034;2023-05-02T00:11:03;39.83;;;30.47;;
30458;SDS011;17254;50.976;7.034;2023-05-02T00:11:10;40.76;;;30.60;;
30458;SDS011;17254;50.976;7.034;2023-05-02T00:11:15;41.50;;;31.20;;
30458;SDS011;17254;50.976;7.034;2023-05-02T00:11:21;41.75;;;31.38;;
30458;SDS011;17254;50.976;7.034;2023-05-02T00:11:28;41.98;;;31.26;;
30458;SDS011;17254;50.976;7.034;2023-05-02T00:11:34;42.65;;;31.42;;
30458;SDS011;17254;50.976;7.034;2023-05-02T00:11:40;43.20;;;31.63;;
30458;SDS011;17254;50.976;7.034;2023-05-02T00:11:47;43.43;;;31.67;;
30458;SDS011;17254;50.976;7.034;2023-05-02T00:11:53;43.25;;;31.95;;
30458;SDS011;17254;50.976;7.034;2023-05-02T00:11:59;42.90;;;32.00;;
30458;SDS011;17254;50.976;7.034;2023-05-02T00:12:05;43.90;;;32.10;;
30458;SDS011;17254;50.976;7.034;2023-05-02T00:12:11;43.60;;;32.00;;
30458;SDS011;17254;50.976;7.034;2023-05-02T00:12:17;43.66;;;31.70;;
30458;SDS011;17254;50.976;7.034;2023-05-02T00:12:24;44.30;;;31.67;;
30458;SDS011;17254;50.976;7.034;2023-05-02T00:12:30;43.75;;;31.17;;
30458;SDS011;17254;50.976;7.034;2023-05-02T00:12:36;41.27;;;30.33;;
30458;SDS011;17254;50.976;7.034;2023-05-02T00:12:43;41.35;;;30.17;;
30458;SDS011;17254;50.976;7.034;2023-05-02T00:12:48;42.90;;;30.70;;
30458;SDS011;17254;50.976;7.034;2023-05-02T00:12:54;42.60;;;30.92;;
30458;SDS011;17254;50.976;7.034;2023-05-02T00:13:00;43.35;;;31.23;;
30458;SDS011;17254;50.976;7.034;2023-05-02T00:13:07;44.43;;;32.07;;
30458;SDS011;17254;50.976;7.034;2023-05-02T00:13:13;44.28;;;32.20;;
30458;SDS011;17254;50.976;7.034;2023-05-02T00:13:19;44.30;;;32.80;;
30458;SDS011;17254;50.976;7.034;2023-05-02T00:13:25;46.07;;;33.47;;
30458;SDS011;17254;50.976;7.034;2023-05-02T00:13:31;46.83;;;34.22;;
30458;SDS011;17254;50.976;7.034;2023-05-02T00:13:38;50.10;;;35.44;;
30458;SDS011;17254;50.976;7.034;2023-05-02T00:13:44;53.53;;;37.15;;
30458;SDS011;17254;50.976;7.034;2023-05-02T00:13:50;56.37;;;38.03;;
30458;SDS011;17254;50.976;7.034;2023-05-02T00:13:56;56.60;;;37.57;;
30458;SDS011;17254;50.976;7.034;2023-05-02T00:14:02;57.10;;;37.20;;
30458;SDS011;17254;50.976;7.034;2023-05-02T00:14:08;55.15;;;36.58;;
30458;SDS011;17254;50.976;7.034;2023-05-02T00:14:14;53.37;;;35.70;;
30458;SDS011;17254;50.976;7.034;2023-05-02T00:14:20;51.28;;;35.33;;
30458;SDS011;17254;50.976;7.034;2023-05-02T00:14:26;52.58;;;35.92;;
30458;SDS011;17254;50.976;7.034;2023-05-02T00:14:32;53.67;;;36.37;;
30458;SDS011;17254;50.976;7.034;2023-05-02T00:14:37;53.20;;;36.33;;
30458;SDS011;17254;50.976;7.034;2023-05-02T00:14:43;52.13;;;35.75;;
30458;SDS011;17254;50.976;7.034;2023-05-02T00:14:50;50.47;;;34.90;;
30458;SDS011;17254;50.976;7.034;2023-05-02T00:14:57;47.97;;;34.00;;
30458;SDS011;17254;50.976;7.034;2023-05-02T00:15:03;47.22;;;33.38;;
30458;SDS011;17254;50.976;7.034;2023-05-02T00:15:10;47.22;;;32.96;;
30458;SDS011;17254;50.976;7.034;2023-05-02T00:15:15;48.33;;;33.17;;
30458;SDS011;17254;50.976;7.034;2023-05-02T00:15:21;48.55;;;33.25;;
30458;SDS011;17254;50.976;7.034;2023-05-02T00:15:28;47.17;;;32.90;;
30458;SDS011;17254;50.976;7.034;2023-05-02T00:15:34;44.93;;;32.70;;
30458;SDS011;17254;50.976;7.034;2023-05-02T00:15:40;44.42;;;32.75;;
30458;SDS011;17254;50.976;7.034;2023-05-02T00:15:46;43.15;;;32.40;;
30458;SDS011;17254;50.976;7.034;2023-05-02T00:15:52;42.92;;;32.17;;
30458;SDS011;17254;50.976;7.034;2023-05-02T00:15:58;43.35;;;32.40;;
30458;SDS011;17254;50.976;7.034;2023-05-02T00:16:04;43.88;;;32.47;;
30458;SDS011;17254;50.976;7.034;2023-05-02T00:16:11;44.18;;;32.48;;
30458;SDS011;17254;50.976;7.034;2023-05-02T00:16:16;45.00;;;32.67;;
30458;SDS011;17254;50.976;7.034;2023-05-02T00:16:23;45.30;;;33.17;;
30458;SDS011;17254;50.976;7.034;2023-05-02T00:16:29;45.80;;;33.43;;
30458;SDS011;17254;50.976;7.034;2023-05-02T00:16:35;46.83;;;33.83;;
30458;SDS011;17254;50.976;7.034;2023-05-02T00:16:41;47.40;;;34.33;;
30458;SDS011;17254;50.976;7.034;2023-05-02T00:16:47;48.43;;;34.97;;
30458;SDS011;17254;50.976;7.034;2023-05-02T00:16:53;49.40;;;35.03;;
30458;SDS011;17254;50.976;7.034;2023-05-02T00:17:00;49.33;;;34.80;;
30458;SDS011;17254;50.976;7.034;2023-05-02T00:17:06;49.10;;;34.65;;
30458;SDS011;17254;50.976;7.034;2023-05-02T00:17:15;48.00;;;33.83;;
30458;SDS011;17254;50.976;7.034;2023-05-02T00:17:21;45.59;;;32.67;;
30458;SDS011;17254;50.976;7.034;2023-05-02T00:17:27;44.57;;;32.50;;
30458;SDS011;17254;50.976;7.034;2023-05-02T00:17:33;44.97;;;32.50;;
30458;SDS011;17254;50.976;7.034;2023-05-02T00:17:40;45.90;;;32.53;;
30458;SDS011;17254;50.976;7.034;2023-05-02T00:17:46;46.90;;;32.50;;
30458;SDS011;17254;50.976;7.034;2023-05-02T00:17:52;48.75;;;32.85;;
30458;SDS011;17254;50.976;7.034;2023-05-02T00:17:59;48.90;;;32.98;;
30458;SDS011;17254;50.976;7.034;2023-05-02T00:18:05;48.78;;;32.72;;
30458;SDS011;17254;50.976;7.034;2023-05-02T00:18:11;47.75;;;32.63;;
30458;SDS011;17254;50.976;7.034;2023-05-02T00:18:17;46.78;;;33.05;;
30458;SDS011;17254;50.976;7.034;2023-05-02T00:18:23;46.33;;;32.78;;
30458;SDS011;17254;50.976;7.034;2023-05-02T00:18:30;45.60;;;32.27;;
30458;SDS011;17254;50.976;7.034;2023-05-02T00:18:36;45.30;;;32.43;;
30458;SDS011;17254;50.976;7.034;2023-05-02T00:18:42;46.05;;;32.50;;
30458;SDS011;17254;50.976;7.034;2023-05-02T00:18:48;45.77;;;31.73;;
30458;SDS011;17254;50.976;7.034;2023-05-02T00:18:54;43.97;;;31.45;;
30458;SDS011;17254;50.976;7.034;2023-05-02T00:19:00;44.70;;;31.27;;
30458;SDS011;17254;50.976;7.034;2023-05-02T00:19:07;43.50;;;30.52;;
30458;SDS011;17254;50.976;7.034;2023-05-02T00:19:13;41.90;;;29.77;;
30458;SDS011;17254;50.976;7.034;2023-05-02T00:19:20;40.44;;;29.20;;
30458;SDS011;17254;50.976;7.034;2023-05-02T00:19:25;40.17;;;28.70;;
30458;SDS011;17254;50.976;7.034;2023-05-02T00:19:36;37.85;;;28.20;;
30458;SDS011;17254;50.976;7.034;2023-05-02T00:19:42;38.48;;;28.57;;
30458;SDS011;17254;50.976;7.034;2023-05-02T00:19:49;39.00;;;28.97;;
30458;SDS011;17254;50.976;7.034;2023-05-02T00:19:55;39.50;;;29.36;;
30458;SDS011;17254;50.976;7.034;2023-05-02T00:20:01;40.93;;;29.90;;
30458;SDS011;17254;50.976;7.034;2023-05-02T00:20:08;41.82;;;30.08;;
30458;SDS011;17254;50.976;7.034;2023-05-02T00:20:16;43.64;;;30.24;;
30458;SDS011;17254;50.976;7.034;2023-05-02T00:20:22;46.36;;;31.10;;
30458;SDS011;17254;50.976;7.034;2023-05-02T00:20:28;48.17;;;31.65;;
30458;SDS011;17254;50.976;7.034;2023-05-02T00:20:35;48.82;;;32.14;;
30458;SDS011;17254;50.976;7.034;2023-05-02T00:20:43;48.43;;;32.83;;
30458;SDS011;17254;50.976;7.034;2023-05-02T00:20:50;47.80;;;33.07;;
30458;SDS011;17254;50.976;7.034;2023-05-02T00:20:55;48.17;;;32.85;;
30458;SDS011;17254;50.976;7.034;2023-05-02T00:21:01;48.22;;;32.75;;
30458;SDS011;17254;50.976;7.034;2023-05-02T00:21:08;48.70;;;33.00;;
30458;SDS011;17254;50.976;7.034;2023-05-02T00:21:14;48.28;;;32.75;;
30458;SDS011;17254;50.976;7.034;2023-05-02T00:21:20;48.05;;;32.38;;
30458;SDS011;17254;50.976;7.034;2023-05-02T00:21:26;46.53;;;32.05;;
30458;SDS011;17254;50.976;7.034;2023-05-02T00:21:33;43.93;;;30.90;;
30458;SDS011;17254;50.976;7.034;2023-05-02T00:21:39;43.75;;;30.55;;
30458;SDS011;17254;50.976;7.034;2023-05-02T00:21:46;43.33;;;30.38;;
30458;SDS011;17254;50.976;7.034;2023-05-02T00:21:52;41.64;;;29.90;;
30458;SDS011;17254;50.976;7.034;2023-05-02T00:21:59;40.88;;;29.90;;
30458;SDS011;17254;50.976;7.034;2023-05-02T00:22:05;41.85;;;29.95;;
30458;SDS011;17254;50.976;7.034;2023-05-02T00:22:12;41.47;;;29.95;;
30458;SDS011;17254;50.976;7.034;2023-05-02T00:22:18;41.96;;;29.78;;
30458;SDS011;17254;50.976;7.034;2023-05-02T00:22:24;41.93;;;29.77;;
30458;SDS011;17254;50.976;7.034;2023-05-02T00:22:30;40.60;;;29.42;;
30458;SDS011;17254;50.976;7.034;2023-05-02T00:22:36;38.20;;;29.07;;
30458;SDS011;17254;50.976;7.034;2023-05-02T00:22:42;37.20;;;28.46;;
30458;SDS011;17254;50.976;7.034;2023-05-02T00:22:48;35.83;;;28.23;;
30458;SDS011;17254;50.976;7.034;2023-05-02T00:22:54;35.90;;;28.00;;
30458;SDS011;17254;50.976;7.034;2023-05-02T00:23:01;35.23;;;27.33;;
30458;SDS011;17254;50.976;7.034;2023-05-02T00:23:07;35.08;;;27.15;;
30458;SDS011;17254;50.976;7.034;2023-05-02T00:23:12;35.65;;;27.42;;
30458;SDS011;17254;50.976;7.034;2023-05-02T00:23:18;36.53;;;27.73;;
30458;SDS011;17254;50.976;7.034;2023-05-02T00:23:25;37.40;;;28.40;;
30458;SDS011;17254;50.976;7.034;2023-05-02T00:23:31;38.25;;;29.13;;
30458;SDS011;17254;50.976;7.034;2023-05-02T00:23:37;39.38;;;29.73;;
30458;SDS011;17254;50.976;7.034;2023-05-02T00:23:43;38.93;;;29.17;;
30458;SDS011;17254;50.976;7.034;2023-05-02T00:23:49;38.25;;;28.73;;
30458;SDS011;17254;50.976;7.034;2023-05-02T00:23:55;38.00;;;28.12;;
30458;SDS011;17254;50.976;7.034;2023-05-02T00:24:01;37.85;;;27.65;;
30458;SDS011;17254;50.976;7.034;2023-05-02T00:24:07;37.53;;;27.25;;
30458;SDS011;17254;50.976;7.034;2023-05-02T00:24:13;37.25;;;27.38;;
30458;SDS011;17254;50.976;7.034;2023-05-02T00:24:19;36.50;;;27.17;;
30458;SDS011;17254;50.976;7.034;2023-05-02T00:24:25;35.23;;;26.83;;
30458;SDS011;17254;50.976;7.034;2023-05-02T00:24:31;34.33;;;26.52;;
30458;SDS011;17254;50.976;7.034;2023-05-02T00:24:37;33.67;;;26.20;;
30458;SDS011;17254;50.976;7.034;2023-05-02T00:24:43;34.25;;;26.00;;
30458;SDS011;17254;50.976;7.034;2023-05-02T00:24:54;34.02;;;25.74;;
30458;SDS011;17254;50.976;7.034;2023-05-02T00:25:01;33.94;;;25.58;;
30458;SDS011;17254;50.976;7.034;2023-05-02T00:25:07;33.60;;;25.70;;
30458;SDS011;17254;50.976;7.034;2023-05-02T00:25:14;32.40;;;25.60;;
30458;SDS011;17254;50.976;7.034;2023-05-02T00:25:21;33.07;;;26.20;;
30458;SDS011;17254;50.976;7.034;2023-05-02T00:25:27;34.65;;;26.80;;
30458;SDS011;17254;50.976;7.034;2023-05-02T00:25:33;35.35;;;27.08;;
30458;SDS011;17254;50.976;7.034;2023-05-02T00:25:42;36.50;;;27.40;;
30458;SDS011;17254;50.976;7.034;2023-05-02T00:25:49;36.95;;;27.56;;
30458;SDS011;17254;50.976;7.034;2023-05-02T00:25:55;36.78;;;27.77;;
30458;SDS011;17254;50.976;7.034;2023-05-02T00:26:01;36.97;;;27.73;;
30458;SDS011;17254;50.976;7.034;2023-05-02T00:26:08;36.54;;;27.24;;
30458;SDS011;17254;50.976;7.034;2023-05-02T00:26:15;35.62;;;27.27;;
30458;SDS011;17254;50.976;7.034;2023-05-02T00:26:21;35.85;;;26.98;;
30458;SDS011;17254;50.976;7.034;2023-05-02T00:26:28;34.60;;;26.43;;
30458;SDS011;17254;50.976;7.034;2023-05-02T00:26:35;34.78;;;26.88;;
30458;SDS011;17254;50.976;7.034;2023-05-02T00:26:40;36.53;;;27.55;;
30458;SDS011;17254;50.976;7.034;2023-05-02T00:26:46;37.83;;;27.90;;
30458;SDS011;17254;50.976;7.034;2023-05-02T00:26:52;37.30;;;27.80;;
30458;SDS011;17254;50.976;7.034;2023-05-02T00:26:58;37.55;;;27.77;;
30458;SDS011;17254;50.976;7.034;2023-05-02T00:27:04;37.07;;;27.40;;
30458;SDS011;17254;50.976;7.034;2023-05-02T00:27:11;35.46;;;26.74;;
30458;SDS011;17254;50.976;7.034;2023-05-02T00:27:17;33.17;;;25.65;;
30458;SDS011;17254;50.976;7.034;2023-05-02T00:27:23;31.77;;;25.05;;
30458;SDS011;17254;50.976;7.034;2023-05-02T00:27:29;31.40;;;24.57;;
30458;SDS011;17254;50.976;7.034;2023-05-02T00:27:35;30.60;;;24.38;;
30458;SDS011;17254;50.976;7.034;2023-05-02T00:27:41;30.70;;;24.08;;
30458;SDS011;17254;50.976;7.034;2023-05-02T00:27:47;31.00;;;24.33;;
30458;SDS011;17254;50.976;7.034;2023-05-02T00:27:55;32.68;;;25.58;;
30458;SDS011;17254;50.976;7.034;2023-05-02T00:28:01;33.45;;;26.05;;
30458;SDS011;17254;50.976;7.034;2023-05-02T00:28:06;33.78;;;26.13;;
30458;SDS011;17254;50.976;7.034;2023-05-02T00:28:12;34.47;;;26.67;;
30458;SDS011;17254;50.976;7.034;2023-05-02T00:28:18;36.97;;;27.63;;
30458;SDS011;17254;50.976;7.034;2023-05-02T00:28:24;37.72;;;27.76;;
30458;SDS011;17254;50.976;7.034;2023-05-02T00:28:31;38.13;;;28.07;;
30458;SDS011;17254;50.976;7.034;2023-05-02T00:28:37;38.90;;;28.40;;
30458;SDS011;17254;50.976;7.034;2023-05-02T00:28:44;37.90;;;27.62;;
30458;SDS011;17254;50.976;7.034;2023-05-02T00:28:50;35.30;;;26.45;;
30458;SDS011;17254;50.976;7.034;2023-05-02T00:28:56;34.75;;;26.27;;
30458;SDS011;17254;50.976;7.034;2023-05-02T00:29:02;33.67;;;25.97;;
30458;SDS011;17254;50.976;7.034;2023-05-02T00:29:09;33.76;;;26.42;;
30458;SDS011;17254;50.976;7.034;2023-05-02T00:29:16;35.12;;;27.22;;
30458;SDS011;17254;50.976;7.034;2023-05-02T00:29:22;35.97;;;27.48;;
30458;SDS011;17254;50.976;7.034;2023-05-02T00:29:28;36.05;;;27.25;;
30458;SDS011;17254;50.976;7.034;2023-05-02T00:29:34;35.67;;;26.33;;
30458;SDS011;17254;50.976;7.034;2023-05-02T00:29:40;34.58;;;25.15;;
30458;SDS011;17254;50.976;7.034;2023-05-02T00:29:46;34.65;;;25.35;;
30458;SDS011;17254;50.976;7.034;2023-05-02T00:29:52;34.35;;;25.40;;
30458;SDS011;17254;50.976;7.034;2023-05-02T00:29:58;34.60;;;25.90;;
30458;SDS011;17254;50.976;7.034;2023-05-02T00:30:05;35.58;;;26.77;;
30458;SDS011;17254;50.976;7.034;2023-05-02T00:30:12;36.88;;;28.14;;
30458;SDS011;17254;50.976;7.034;2023-05-02T00:30:18;38.33;;;28.97;;
30458;SDS011;17254;50.976;7.034;2023-05-02T00:30:25;40.07;;;29.77;;
30458;SDS011;17254;50.976;7.034;2023-05-02T00:30:31;40.50;;;30.17;;
30458;SDS011;17254;50.976;7.034;2023-05-02T00:30:40;40.83;;;30.40;;
30458;SDS011;17254;50.976;7.034;2023-05-02T00:30:48;42.54;;;31.09;;
30458;SDS011;17254;50.976;7.034;2023-05-02T00:30:54;43.33;;;31.40;;
30458;SDS011;17254;50.976;7.034;2023-05-02T00:30:59;44.15;;;31.55;;
30458;SDS011;17254;50.976;7.034;2023-05-02T00:31:06;44.78;;;31.77;;
30458;SDS011;17254;50.976;7.034;2023-05-02T00:31:12;45.83;;;32.05;;
30458;SDS011;17254;50.976;7.034;2023-05-02T00:31:18;45.35;;;31.77;;
30458;SDS011;17254;50.976;7.034;2023-05-02T00:31:24;44.80;;;31.85;;
30458;SDS011;17254;50.976;7.034;2023-05-02T00:31:29;45.17;;;32.20;;
30458;SDS011;17254;50.976;7.034;2023-05-02T00:31:35;45.50;;;32.38;;
30458;SDS011;17254;50.976;7.034;2023-05-02T00:31:41;46.00;;;32.70;;
30458;SDS011;17254;50.976;7.034;2023-05-02T00:31:47;46.20;;;32.47;;
30458;SDS011;17254;50.976;7.034;2023-05-02T00:31:53;46.15;;;31.98;;
30458;SDS011;17254;50.976;7.034;2023-05-02T00:31:59;45.90;;;31.43;;
30458;SDS011;17254;50.976;7.034;2023-05-02T00:32:06;46.58;;;31.38;;
30458;SDS011;17254;50.976;7.034;2023-05-02T00:32:12;46.00;;;31.83;;
30458;SDS011;17254;50.976;7.034;2023-05-02T00:32:19;47.22;;;32.70;;
30458;SDS011;17254;50.976;7.034;2023-05-02T00:32:25;50.40;;;33.97;;
30458;SDS011;17254;50.976;7.034;2023-05-02T00:32:31;52.55;;;35.28;;
30458;SDS011;17254;50.976;7.034;2023-05-02T00:32:37;55.35;;;36.08;;
30458;SDS011;17254;50.976;7.034;2023-05-02T00:32:43;56.30;;;35.80;;
30458;SDS011;17254;50.976;7.034;2023-05-02T00:32:49;56.33;;;35.63;;
30458;SDS011;17254;50.976;7.034;2023-05-02T00:32:55;57.45;;;36.25;;
30458;SDS011;17254;50.976;7.034;2023-05-02T00:33:01;59.75;;;37.03;;
30458;SDS011;17254;50.976;7.034;2023-05-02T00:33:07;60.23;;;36.93;;
30458;SDS011;17254;50.976;7.034;2023-05-02T00:33:13;61.93;;;37.87;;
30458;SDS011;17254;50.976;7.034;2023-05-02T00:33:20;65.75;;;39.25;;
30458;SDS011;17254;50.976;7.034;2023-05-02T00:33:27;67.10;;;39.80;;
30458;SDS011;17254;50.976;7.034;2023-05-02T00:33:32;67.25;;;40.40;;
30458;SDS011;17254;50.976;7.034;2023-05-02T00:33:39;68.53;;;41.40;;
30458;SDS011;17254;50.976;7.034;2023-05-02T00:33:45;70.53;;;42.13;;
30458;SDS011;17254;50.976;7.034;2023-05-02T00:33:51;69.50;;;41.33;;
30458;SDS011;17254;50.976;7.034;2023-05-02T00:33:58;69.13;;;41.43;;
30458;SDS011;17254;50.976;7.034;2023-05-02T00:34:04;71.63;;;41.70;;
30458;SDS011;17254;50.976;7.034;2023-05-02T00:34:10;71.23;;;41.67;;
30458;SDS011;17254;50.976;7.034;2023-05-02T00:34:16;70.25;;;41.58;;
30458;SDS011;17254;50.976;7.034;2023-05-02T00:34:22;71.00;;;41.95;;
30458;SDS011;17254;50.976;7.034;2023-05-02T00:34:28;73.47;;;42.78;;
30458;SDS011;17254;50.976;7.034;2023-05-02T00:34:34;73.85;;;43.25;;
30458;SDS011;17254;50.976;7.034;2023-05-02T00:34:40;74.23;;;43.30;;
30458;SDS011;17254;50.976;7.034;2023-05-02T00:34:47;75.55;;;43.78;;
30458;SDS011;17254;50.976;7.034;2023-05-02T00:34:53;75.82;;;43.63;;
30458;SDS011;17254;50.976;7.034;2023-05-02T00:35:01;74.85;;;42.70;;
30458;SDS011;17254;50.976;7.034;2023-05-02T00:35:07;72.57;;;41.83;;
30458;SDS011;17254;50.976;7.034;2023-05-02T00:35:13;71.86;;;41.48;;
30458;SDS011;17254;50.976;7.034;2023-05-02T00:35:19;69.97;;;41.07;;
30458;SDS011;17254;50.976;7.034;2023-05-02T00:35:25;67.65;;;40.65;;
30458;SDS011;17254;50.976;7.034;2023-05-02T00:35:32;64.46;;;40.08;;
30458;SDS011;17254;50.976;7.034;2023-05-02T00:35:38;64.07;;;40.22;;
30458;SDS011;17254;50.976;7.034;2023-05-02T00:35:44;63.92;;;40.56;;
30458;SDS011;17254;50.976;7.034;2023-05-02T00:35:50;64.57;;;40.77;;
30458;SDS011;17254;50.976;7.034;2023-05-02T00:35:56;65.10;;;40.93;;
30458;SDS011;17254;50.976;7.034;2023-05-02T00:36:02;65.30;;;41.00;;
30458;SDS011;17254;50.976;7.034;2023-05-02T00:36:12;65.57;;;40.60;;
30458;SDS011;17254;50.976;7.034;2023-05-02T00:36:19;68.87;;;41.37;;
30458;SDS011;17254;50.976;7.034;2023-05-02T00:36:26;69.60;;;42.00;;
30458;SDS011;17254;50.976;7.034;2023-05-02T00:36:32;71.90;;;43.05;;
30458;SDS011;17254;50.976;7.034;2023-05-02T00:36:38;72.03;;;43.63;;
30458;SDS011;17254;50.976;7.034;2023-05-02T00:36:44;72.75;;;43.72;;
30458;SDS011;17254;50.976;7.034;2023-05-02T00:36:50;74.35;;;44.72;;
30458;SDS011;17254;50.976;7.034;2023-05-02T00:36:56;76.90;;;45.70;;